createdAt,value
2019-04-19T00:02:18.876Z,4.67
2019-04-19T00:04:55.770Z,4.80
2019-04-19T00:07:27.288Z,4.97
2019-04-19T00:10:03.547Z,5.07
2019-04-19T00:12:37.320Z,4.47
2019-04-19T00:15:07.970Z,5.50
2019-04-19T00:17:38.525Z,5.07
2019-04-19T00:20:32.500Z,4.90
2019-04-19T00:23:00.842Z,4.83
2019-04-19T00:25:17.653Z,4.67
2019-04-19T00:27:56.433Z,5.30
2019-04-19T00:30:34.896Z,4.90
2019-04-19T00:33:09.085Z,4.53
2019-04-19T00:35:28.553Z,4.50
2019-04-19T00:38:06.640Z,5.13
2019-04-19T00:41:05.278Z,4.50
2019-04-19T00:43:35.967Z,4.60
2019-04-19T00:46:12.817Z,4.90
2019-04-19T00:48:41.342Z,4.80
2019-04-19T00:51:11.968Z,5.13
2019-04-19T00:53:40.632Z,4.93
2019-04-19T00:56:11.426Z,4.30
2019-04-19T00:58:38.698Z,4.42
2019-04-19T01:01:13.504Z,5.67
2019-04-19T01:03:45.782Z,4.80
2019-04-19T01:06:18.624Z,5.33
2019-04-19T01:08:56.340Z,4.20
2019-04-19T01:11:33.098Z,5.08
2019-04-19T01:14:10.868Z,4.17
2019-04-19T01:16:31.722Z,5.17
2019-04-19T01:19:01.556Z,5.05
2019-04-19T01:21:28.277Z,4.80
2019-04-19T01:24:00.460Z,5.58
2019-04-19T01:26:37.208Z,4.72
2019-04-19T01:29:08.479Z,4.75
2019-04-19T01:31:35.572Z,5.30
2019-04-19T01:34:13.045Z,4.80
2019-04-19T01:36:43.600Z,5.08
2019-04-19T01:39:25.519Z,4.45
2019-04-19T01:41:55.140Z,4.67
2019-04-19T01:44:33.399Z,4.25
2019-04-19T01:47:07.898Z,4.70
2019-04-19T01:49:46.250Z,5.60
2019-04-19T01:52:36.855Z,4.55
2019-04-19T01:54:54.343Z,5.90
2019-04-19T01:57:15.715Z,4.83
2019-04-19T01:59:49.183Z,4.47
2019-04-19T02:02:20.339Z,4.22
2019-04-19T02:04:52.145Z,5.05
2019-04-19T02:07:25.026Z,4.90
2019-04-19T02:10:06.154Z,4.65
2019-04-19T02:12:36.553Z,4.40
2019-04-19T02:15:04.845Z,4.50
2019-04-19T02:17:37.285Z,5.15
2019-04-19T02:20:06.085Z,5.28
2019-04-19T02:22:36.866Z,4.97
2019-04-19T02:25:12.547Z,4.47
2019-04-19T02:27:44.123Z,4.50
2019-04-19T02:30:19.262Z,4.58
2019-04-19T02:33:07.025Z,5.08
2019-04-19T02:35:34.761Z,4.87
2019-04-19T02:38:13.644Z,4.03
2019-04-19T02:41:01.034Z,4.67
2019-04-19T02:43:24.089Z,4.85
2019-04-19T02:46:09.045Z,4.45
2019-04-19T02:48:26.453Z,5.15
2019-04-19T02:53:29.888Z,4.45
2019-04-19T02:56:03.852Z,4.80
2019-04-19T02:58:48.857Z,3.77
2019-04-19T03:04:09.555Z,4.97
2019-04-19T03:06:16.549Z,4.78
2019-04-19T03:08:33.433Z,4.87
2019-04-19T03:11:12.921Z,4.53
2019-04-19T03:13:53.488Z,4.60
2019-04-19T03:16:31.179Z,4.55
2019-04-19T03:18:51.788Z,4.30
2019-04-19T03:21:35.855Z,4.40
2019-04-19T03:24:03.713Z,4.55
2019-04-19T03:26:33.632Z,4.75
2019-04-19T03:28:53.068Z,4.67
2019-04-19T03:31:51.253Z,4.85
2019-04-19T03:36:42.649Z,4.35
2019-04-19T03:39:20.459Z,4.40
2019-04-19T03:42:03.159Z,5.60
2019-04-19T03:44:37.510Z,4.65
2019-04-19T03:47:19.470Z,4.55
2019-04-19T03:49:50.294Z,4.95
2019-04-19T03:52:21.937Z,4.80
2019-04-19T03:54:51.400Z,5.12
2019-04-19T03:57:18.429Z,4.60
2019-04-19T03:59:39.405Z,4.42
2019-04-19T04:02:09.854Z,4.60
2019-04-19T04:04:43.598Z,4.42
2019-04-19T04:07:17.495Z,5.35
2019-04-19T04:09:54.509Z,4.67
2019-04-19T04:12:34.571Z,3.87
2019-04-19T04:15:19.645Z,5.15
2019-04-19T04:17:41.554Z,4.60
2019-04-19T04:20:12.001Z,4.53
2019-04-19T04:22:46.354Z,4.65
2019-04-19T04:25:21.578Z,4.47
2019-04-19T04:27:58.649Z,4.62
2019-04-19T04:30:27.710Z,4.80
2019-04-19T04:33:03.601Z,3.65
2019-04-19T04:35:42.402Z,4.05
2019-04-19T04:38:05.912Z,4.05
2019-04-19T04:40:29.597Z,5.20
2019-04-19T04:43:13.850Z,4.30
2019-04-19T04:46:11.150Z,5.10
2019-04-19T04:48:40.652Z,4.03
2019-04-19T04:51:09.515Z,5.03
2019-04-19T04:53:25.706Z,4.55
2019-04-19T04:56:02.187Z,4.50
2019-04-19T04:58:34.446Z,5.30
2019-04-19T05:01:08.595Z,4.25
2019-04-19T05:03:54.354Z,4.60
2019-04-19T05:06:21.604Z,4.70
2019-04-19T05:08:56.379Z,4.37
2019-04-19T05:11:29.830Z,5.00
2019-04-19T05:14:05.922Z,4.50
2019-04-19T05:16:37.795Z,4.85
2019-04-19T05:19:03.917Z,4.40
2019-04-19T05:21:36.322Z,4.50
2019-04-19T05:24:16.196Z,4.97
2019-04-19T05:26:49.501Z,4.75
2019-04-19T05:29:13.544Z,3.90
2019-04-19T05:31:37.872Z,4.45
2019-04-19T05:34:28.092Z,4.45
2019-04-19T05:36:55.020Z,3.87
2019-04-19T05:39:53.117Z,4.43
2019-04-19T05:42:12.069Z,4.90
2019-04-19T05:45:11.006Z,4.03
2019-04-19T05:47:24.980Z,3.80
2019-04-19T05:49:56.460Z,4.23
2019-04-19T05:52:30.288Z,5.03
2019-04-19T05:54:42.960Z,4.73
2019-04-19T05:57:31.019Z,4.73
2019-04-19T05:59:54.781Z,3.93
2019-04-19T06:02:26.341Z,3.80
2019-04-19T06:05:16.423Z,4.03
2019-04-19T06:07:39.066Z,4.40
2019-04-19T06:09:55.920Z,4.77
2019-04-19T06:12:31.162Z,4.20
2019-04-19T06:15:17.967Z,4.20
2019-04-19T06:17:56.719Z,3.90
2019-04-19T06:20:30.285Z,4.60
2019-04-19T06:23:10.679Z,3.90
2019-04-19T06:25:46.211Z,4.60
2019-04-19T06:28:15.456Z,4.00
2019-04-19T06:30:45.435Z,3.83
2019-04-19T06:33:21.671Z,4.30
2019-04-19T06:35:41.591Z,4.10
2019-04-19T06:38:05.540Z,3.97
2019-04-19T06:40:37.644Z,3.80
2019-04-19T06:43:13.832Z,3.80
2019-04-19T06:45:58.013Z,4.00
2019-04-19T06:48:18.550Z,4.30
2019-04-19T06:50:50.919Z,3.93
2019-04-19T06:53:20.954Z,4.03
2019-04-19T06:55:53.532Z,3.50
2019-04-19T06:58:27.615Z,3.23
2019-04-19T07:01:12.171Z,4.00
2019-04-19T07:03:30.132Z,4.00
2019-04-19T07:06:18.464Z,3.60
2019-04-19T07:11:31.729Z,3.60
2019-04-19T07:13:48.746Z,2.80
2019-04-19T07:16:37.071Z,3.30
2019-04-19T07:19:07.935Z,2.97
2019-04-19T07:21:38.452Z,2.73
2019-04-19T07:24:16.234Z,3.10
2019-04-19T07:26:42.271Z,2.60
2019-04-19T07:28:55.671Z,3.20
2019-04-19T07:31:28.122Z,3.23
2019-04-19T07:34:09.804Z,3.00
2019-04-19T07:36:51.642Z,2.63
2019-04-19T07:39:20.374Z,3.20
2019-04-19T07:42:05.519Z,3.70
2019-04-19T07:44:44.095Z,3.10
2019-04-19T07:47:17.643Z,3.70
2019-04-19T07:49:51.392Z,3.00
2019-04-19T07:52:20.987Z,2.53
2019-04-19T07:54:53.193Z,3.37
2019-04-19T07:57:50.874Z,3.30
2019-04-19T08:00:18.954Z,2.80
2019-04-19T08:02:49.975Z,3.00
2019-04-19T08:05:16.099Z,3.23
2019-04-19T08:10:27.374Z,2.87
2019-04-19T08:13:08.969Z,3.23
2019-04-19T08:18:00.480Z,2.97
2019-04-19T08:27:56.342Z,2.70
2019-04-19T08:30:25.501Z,2.77
2019-04-19T08:32:51.318Z,2.90
2019-04-19T08:35:22.169Z,3.37
2019-04-19T08:38:04.879Z,3.20
2019-04-19T08:40:50.627Z,2.70
2019-04-19T08:43:21.325Z,3.37
2019-04-19T08:45:46.729Z,2.23
2019-04-19T08:48:45.542Z,2.40
2019-04-19T08:51:33.379Z,2.80
2019-04-19T08:54:23.995Z,2.50
2019-04-19T08:56:43.092Z,2.60
2019-04-19T08:59:35.806Z,2.90
2019-04-19T09:02:03.140Z,3.00
2019-04-19T09:04:30.420Z,2.40
2019-04-19T09:07:38.586Z,2.50
2019-04-19T09:09:37.283Z,2.87
2019-04-19T09:12:08.236Z,2.50
2019-04-19T09:14:39.520Z,2.47
2019-04-19T09:17:30.104Z,2.43
2019-04-19T09:22:19.190Z,2.10
2019-04-19T09:24:46.571Z,2.20
2019-04-19T09:27:33.967Z,2.23
2019-04-19T09:29:58.953Z,1.97
2019-04-19T09:32:18.929Z,1.80
2019-04-19T09:34:49.547Z,2.10
2019-04-19T09:37:23.887Z,1.83
2019-04-19T09:39:56.518Z,2.30
2019-04-19T09:42:35.985Z,1.87
2019-04-19T09:44:56.572Z,2.17
2019-04-19T09:47:23.528Z,2.47
2019-04-19T09:50:06.744Z,2.47
2019-04-19T09:52:52.293Z,1.77
2019-04-19T09:55:22.728Z,1.90
2019-04-19T09:57:53.623Z,1.60
2019-04-19T10:00:11.121Z,2.27
2019-04-19T10:02:45.436Z,2.00
2019-04-19T10:05:12.643Z,2.20
2019-04-19T10:07:43.135Z,1.90
2019-04-19T10:10:15.946Z,2.20
2019-04-19T10:12:45.597Z,2.67
2019-04-19T10:15:24.503Z,2.10
2019-04-19T10:17:54.801Z,2.27
2019-04-19T10:20:45.065Z,2.63
2019-04-19T10:23:21.455Z,1.97
2019-04-19T10:25:59.215Z,2.80
2019-04-19T10:28:28.609Z,2.13
2019-04-19T10:31:03.294Z,1.70
2019-04-19T10:33:40.252Z,2.47
2019-04-19T10:36:08.691Z,1.60
2019-04-19T10:38:40.857Z,2.03
2019-04-19T10:41:13.548Z,2.00
2019-04-19T10:43:46.401Z,2.20
2019-04-19T10:46:16.126Z,2.10
2019-04-19T10:48:58.101Z,2.50
2019-04-19T10:51:21.693Z,2.20
2019-04-19T10:53:52.622Z,3.23
2019-04-19T10:56:28.155Z,2.10
2019-04-19T10:59:08.074Z,2.47
2019-04-19T11:01:39.101Z,2.57
2019-04-19T11:04:09.430Z,2.90
2019-04-19T11:06:39.943Z,4.10
2019-04-19T11:09:10.505Z,2.07
2019-04-19T11:11:41.653Z,2.30
2019-04-19T11:14:14.091Z,4.07
2019-04-19T11:16:44.549Z,2.50
2019-04-19T11:19:21.155Z,2.40
2019-04-19T11:21:47.962Z,2.70
2019-04-19T11:24:18.270Z,2.30
2019-04-19T11:26:49.342Z,2.80
2019-04-19T11:29:19.776Z,2.20
2019-04-19T11:32:06.446Z,2.50
2019-04-19T11:34:37.535Z,2.10
2019-04-19T11:37:11.904Z,2.20
2019-04-19T11:39:41.578Z,2.40
2019-04-19T11:42:12.844Z,2.80
2019-04-19T11:44:43.721Z,2.27
2019-04-19T11:47:15.193Z,2.50
2019-04-19T11:49:47.086Z,2.53
2019-04-19T11:52:19.884Z,2.53
2019-04-19T11:54:50.352Z,2.97
2019-04-19T11:57:28.376Z,2.10
2019-04-19T12:00:11.567Z,2.33
2019-04-19T12:02:44.140Z,2.30
2019-04-19T12:05:23.256Z,2.20
2019-04-19T12:07:50.456Z,2.50
2019-04-19T12:10:21.768Z,3.93
2019-04-19T12:12:54.996Z,2.33
2019-04-19T12:15:29.543Z,2.40
2019-04-19T12:18:00.024Z,2.30
2019-04-19T12:20:30.997Z,2.37
2019-04-19T12:23:02.059Z,2.37
2019-04-19T12:25:33.433Z,2.57
2019-04-19T12:28:09.901Z,2.53
2019-04-19T12:30:46.037Z,2.53
2019-04-19T12:33:13.858Z,2.67
2019-04-19T12:35:45.315Z,2.50
2019-04-19T12:38:15.538Z,2.33
2019-04-19T12:40:47.743Z,2.17
2019-04-19T12:43:19.010Z,11.10
2019-04-19T12:45:52.525Z,2.60
2019-04-19T12:48:23.745Z,2.70
2019-04-19T12:50:54.002Z,2.63
2019-04-19T12:53:25.344Z,2.90
2019-04-19T12:55:56.124Z,2.57
2019-04-19T12:58:26.203Z,2.53
2019-04-19T13:00:58.575Z,2.73
2019-04-19T13:03:44.445Z,2.30
2019-04-19T13:06:33.690Z,2.97
2019-04-19T13:09:05.877Z,2.50
2019-04-19T13:11:36.820Z,2.33
2019-04-19T13:14:07.937Z,2.60
2019-04-19T13:16:38.163Z,2.70
2019-04-19T13:19:08.518Z,2.27
2019-04-19T13:21:40.545Z,2.50
2019-04-19T13:24:10.911Z,2.70
2019-04-19T13:26:43.368Z,2.57
2019-04-19T13:29:15.613Z,2.43
2019-04-19T13:31:47.428Z,2.67
2019-04-19T13:34:17.514Z,2.30
2019-04-19T13:36:58.762Z,2.20
2019-04-19T13:39:42.054Z,3.30
2019-04-19T13:42:34.693Z,2.53
2019-04-19T13:45:18.229Z,2.30
2019-04-19T13:47:42.996Z,2.83
2019-04-19T13:50:24.145Z,2.13
2019-04-19T13:52:50.723Z,2.20
2019-04-19T13:55:21.745Z,2.50
2019-04-19T13:57:53.679Z,2.20
2019-04-19T14:00:40.595Z,2.50
2019-04-19T14:03:11.811Z,2.43
2019-04-19T14:05:44.158Z,2.47
2019-04-19T14:08:15.315Z,2.20
2019-04-19T14:10:53.186Z,2.20
2019-04-19T14:13:34.996Z,2.50
2019-04-19T14:16:06.939Z,2.57
2019-04-19T14:18:38.061Z,2.57
2019-04-19T14:21:08.709Z,2.50
2019-04-19T14:23:39.844Z,2.83
2019-04-19T14:26:10.963Z,3.10
2019-04-19T14:28:41.315Z,2.40
2019-04-19T14:31:12.554Z,2.60
2019-04-19T14:33:45.188Z,2.60
2019-04-19T14:36:17.737Z,2.70
2019-04-19T14:38:49.866Z,2.87
2019-04-19T14:41:23.078Z,2.27
2019-04-19T14:43:55.370Z,2.57
2019-04-19T14:46:26.793Z,2.50
2019-04-19T14:48:56.938Z,2.60
2019-04-19T14:51:30.000Z,2.27
2019-04-19T14:54:00.202Z,2.20
2019-04-19T14:56:30.539Z,2.40
2019-04-19T14:59:00.777Z,2.53
2019-04-19T15:01:33.486Z,2.07
2019-04-19T15:04:21.930Z,2.17
2019-04-19T15:06:56.162Z,2.70
2019-04-19T15:09:27.673Z,2.60
2019-04-19T15:11:58.956Z,2.50
2019-04-19T15:14:30.434Z,2.63
2019-04-19T15:17:00.668Z,2.40
2019-04-19T15:19:33.057Z,2.63
2019-04-19T15:22:04.057Z,3.10
2019-04-19T15:24:35.074Z,2.57
2019-04-19T15:27:07.399Z,2.23
2019-04-19T15:29:39.456Z,2.80
2019-04-19T15:32:10.541Z,2.70
2019-04-19T15:34:40.766Z,2.47
2019-04-19T15:37:11.867Z,1.80
2019-04-19T15:39:42.162Z,2.37
2019-04-19T15:42:14.222Z,2.30
2019-04-19T15:44:46.976Z,2.67
2019-04-19T15:47:18.942Z,2.33
2019-04-19T15:49:49.016Z,2.50
2019-04-19T15:52:19.811Z,2.30
2019-04-19T15:54:50.152Z,2.33
2019-04-19T15:57:21.291Z,2.50
2019-04-19T15:59:51.861Z,2.53
2019-04-19T16:02:40.248Z,2.30
2019-04-19T16:05:20.194Z,2.60
2019-04-19T16:08:01.639Z,2.47
2019-04-19T16:10:34.832Z,2.60
2019-04-19T16:13:05.609Z,3.27
2019-04-19T16:15:36.049Z,3.40
2019-04-19T16:18:06.209Z,3.77
2019-04-19T16:20:36.344Z,3.30
2019-04-19T16:23:07.942Z,3.20
2019-04-19T16:25:38.133Z,3.70
2019-04-19T16:28:09.464Z,3.87
2019-04-19T16:30:39.702Z,3.40
2019-04-19T16:33:09.895Z,3.90
2019-04-19T16:35:40.414Z,3.90
2019-04-19T16:38:11.982Z,4.30
2019-04-19T16:40:42.669Z,4.60
2019-04-19T16:43:13.342Z,4.10
2019-04-19T16:45:44.129Z,3.57
2019-04-19T16:48:17.033Z,3.70
2019-04-19T16:50:48.415Z,3.50
2019-04-19T16:53:19.808Z,4.27
2019-04-19T16:55:51.917Z,4.40
2019-04-19T16:58:26.379Z,3.70
2019-04-19T17:00:56.694Z,3.77
2019-04-19T17:03:27.755Z,3.20
2019-04-19T17:05:58.176Z,3.47
2019-04-19T17:08:29.950Z,4.20
2019-04-19T17:11:02.204Z,3.60
2019-04-19T17:13:33.348Z,3.27
2019-04-19T17:16:07.794Z,3.60
2019-04-19T17:18:52.629Z,3.67
2019-04-19T17:21:24.424Z,3.70
2019-04-19T17:24:02.870Z,3.80
2019-04-19T17:26:33.254Z,4.17
2019-04-19T17:29:04.529Z,3.73
2019-04-19T17:31:40.484Z,4.50
2019-04-19T17:34:11.904Z,4.50
2019-04-19T17:36:44.309Z,4.40
2019-04-19T17:39:14.856Z,3.77
2019-04-19T17:41:46.257Z,3.93
2019-04-19T17:44:17.559Z,4.97
2019-04-19T17:46:48.805Z,3.87
2019-04-19T17:49:20.254Z,3.57
2019-04-19T17:52:02.120Z,3.90
2019-04-19T17:54:43.205Z,4.00
2019-04-19T17:56:57.367Z,4.23
2019-04-19T17:59:30.300Z,4.10
2019-04-19T18:02:01.408Z,4.00
2019-04-19T18:04:35.736Z,3.93
2019-04-19T18:07:06.769Z,3.40
2019-04-19T18:09:47.597Z,3.37
2019-04-19T18:12:13.518Z,3.80
2019-04-19T18:14:48.455Z,3.73
2019-04-19T18:17:18.552Z,4.20
2019-04-19T18:19:51.063Z,3.50
2019-04-19T18:22:34.415Z,4.70
2019-04-19T18:24:57.027Z,4.30
2019-04-19T18:27:28.411Z,4.17
2019-04-19T18:30:02.395Z,4.07
2019-04-19T18:32:42.124Z,4.10
2019-04-19T18:35:19.643Z,4.77
2019-04-19T18:37:47.631Z,4.70
2019-04-19T18:40:19.514Z,3.90
2019-04-19T18:43:02.803Z,4.70
2019-04-19T18:45:25.299Z,4.00
2019-04-19T18:47:53.147Z,4.27
2019-04-19T18:50:24.385Z,4.53
2019-04-19T18:53:10.900Z,4.50
2019-04-19T18:55:34.324Z,4.47
2019-04-19T18:57:58.408Z,5.20
2019-04-19T19:00:36.867Z,5.20
2019-04-19T19:03:03.692Z,5.70
2019-04-19T19:05:34.968Z,5.60
2019-04-19T19:08:13.950Z,5.73
2019-04-19T19:10:44.595Z,6.10
2019-04-19T19:13:09.614Z,5.10
2019-04-19T19:15:44.951Z,4.40
2019-04-19T19:18:11.503Z,5.80
2019-04-19T19:20:48.556Z,5.53
2019-04-19T19:23:26.869Z,6.00
2019-04-19T19:25:55.275Z,5.20
2019-04-19T19:28:20.572Z,5.20
2019-04-19T19:30:51.266Z,5.27
2019-04-19T19:33:32.639Z,4.70
2019-04-19T19:35:59.527Z,6.37
2019-04-19T19:38:33.537Z,6.00
2019-04-19T19:41:22.782Z,5.67
2019-04-19T19:43:49.921Z,5.37
2019-04-19T19:46:26.309Z,5.20
2019-04-19T19:51:25.682Z,4.73
2019-04-19T19:54:25.511Z,4.90
2019-04-19T19:59:05.239Z,4.53
2019-04-19T20:01:35.332Z,5.10
2019-04-19T20:03:58.301Z,4.57
2019-04-19T20:06:37.142Z,5.00
2019-04-19T20:09:14.648Z,5.80
2019-04-19T20:11:43.752Z,5.90
2019-04-19T20:14:15.645Z,5.17
2019-04-19T20:16:45.586Z,5.73
2019-04-19T20:19:18.072Z,5.40
2019-04-19T20:21:53.055Z,5.00
2019-04-19T20:24:33.934Z,4.83
2019-04-19T20:27:06.758Z,6.00
2019-04-19T20:29:32.125Z,6.33
2019-04-19T20:32:02.892Z,4.47
2019-04-19T20:34:34.988Z,5.13
2019-04-19T20:37:03.954Z,4.93
2019-04-19T20:39:36.375Z,4.23
2019-04-19T20:42:07.874Z,4.70
2019-04-19T20:44:49.943Z,5.57
2019-04-19T20:47:14.667Z,5.30
2019-04-19T20:49:46.389Z,4.90
2019-04-19T20:52:31.107Z,4.23
2019-04-19T20:55:10.172Z,4.57
2019-04-19T20:57:37.786Z,5.70
2019-04-19T20:59:59.310Z,5.23
2019-04-19T21:02:34.170Z,4.60
2019-04-19T21:05:04.902Z,4.60
2019-04-19T21:07:38.218Z,4.80
2019-04-19T21:10:13.043Z,4.67
2019-04-19T21:12:41.182Z,4.63
2019-04-19T21:15:21.897Z,4.83
2019-04-19T21:17:46.474Z,5.00
2019-04-19T21:20:19.733Z,5.23
2019-04-19T21:22:48.662Z,5.03
2019-04-19T21:25:30.397Z,4.70
2019-04-19T21:27:55.191Z,4.70
2019-04-19T21:30:23.455Z,5.53
2019-04-19T21:33:01.987Z,5.40
2019-04-19T21:35:31.158Z,5.80
2019-04-19T21:38:05.727Z,4.90
2019-04-19T21:40:37.819Z,4.63
2019-04-19T21:43:07.644Z,5.33
2019-04-19T21:45:41.782Z,5.20
2019-04-19T21:48:11.013Z,5.10
2019-04-19T21:50:45.175Z,5.83
2019-04-19T21:53:12.984Z,5.27
2019-04-19T21:55:46.078Z,6.07
2019-04-19T21:58:18.038Z,5.23
2019-04-19T22:01:04.065Z,5.43
2019-04-19T22:03:32.599Z,5.20
2019-04-19T22:06:14.531Z,5.67
2019-04-19T22:08:39.796Z,4.87
2019-04-19T22:11:08.738Z,4.73
2019-04-19T22:13:41.702Z,5.00
2019-04-19T22:16:12.579Z,4.90
2019-04-19T22:18:48.626Z,4.50
2019-04-19T22:21:16.686Z,4.70
2019-04-19T22:23:51.205Z,6.83
2019-04-19T22:26:27.080Z,5.00
2019-04-19T22:28:51.374Z,5.23
2019-04-19T22:31:27.574Z,3.90
2019-04-19T22:33:56.644Z,5.50
2019-04-19T22:36:29.966Z,5.40
2019-04-19T22:39:00.412Z,5.00
2019-04-19T22:41:32.745Z,5.87
2019-04-19T22:44:04.822Z,5.07
2019-04-19T22:46:41.861Z,4.67
2019-04-19T22:49:10.387Z,4.60
2019-04-19T22:51:40.590Z,5.53
2019-04-19T22:54:10.856Z,4.77
2019-04-19T22:56:54.063Z,4.53
2019-04-19T22:59:16.448Z,4.07
2019-04-19T23:01:59.737Z,4.50
2019-04-19T23:04:29.400Z,4.60
2019-04-19T23:07:05.291Z,4.87
2019-04-19T23:09:34.857Z,4.53
2019-04-19T23:12:05.022Z,4.70
2019-04-19T23:14:52.545Z,5.00
2019-04-19T23:17:29.238Z,5.00
2019-04-19T23:19:55.641Z,4.47
2019-04-19T23:22:32.980Z,4.60
2019-04-19T23:25:04.021Z,5.00
2019-04-19T23:27:40.912Z,5.30
2019-04-19T23:30:25.277Z,5.23
2019-04-19T23:32:52.367Z,4.50
2019-04-19T23:35:29.671Z,4.80
2019-04-19T23:37:55.548Z,4.43
2019-04-19T23:40:29.995Z,5.10
2019-04-19T23:42:59.102Z,4.90
2019-04-19T23:45:43.507Z,5.97
2019-04-19T23:48:12.904Z,5.13
2019-04-19T23:50:42.520Z,6.00
2019-04-19T23:53:14.422Z,4.90
2019-04-19T23:55:44.527Z,5.23
2019-04-19T23:58:23.107Z,4.67
